Terminal Aerodrome Forecast
Issued by NWS

Home | Current Version | Previous Version | Text Only | Print | Product List | Glossary On
Versions: 1 2 3 4 5 6 7 8 9 10 11 12 13 14 15 16 17 18 19 20 21 22 23 24
000
FTUS44 KTSA 240100 AAA
TAFRVS
TAF AMD
KRVS 240113Z 2401/2424 33016G27KT P6SM OVC022
      TEMPO 2401/2403 4SM -RA BR BKN015
     FM240300 33016KT P6SM SCT015 BKN050
     FM240600 30012KT P6SM SCT120
     FM241200 26010KT P6SM SKC
     FM241600 28015G25KT P6SM SKC=

USA.gov is the U.S. government's official web portal to all federal, state and local government web resources and services.